Time;durP1;ratioP1;P1;durP2;ratioP2;P2;SDS_P1;SDS_P2;PMS_P1;PMS_P2;Temp;Humidity;BMP_temperature;BMP_pressure;BME280_temperature;BME280_humidity;BME280_pressure;Samples;Min_cycle;Max_cycle;Signal;HPM_P1;HPM_P2
2021/06/09 00:02:18;;;;;;;17.90;16.50;;;20.60;70.00;;;;;;5114696;28;20466;-78
2021/06/09 00:04:45;;;;;;;17.07;15.70;;;20.60;70.00;;;;;;5114934;28;20451;-78
2021/06/09 00:07:11;;;;;;;17.60;16.33;;;20.50;70.20;;;;;;5114785;28;21009;-78
2021/06/09 00:09:37;;;;;;;18.50;17.07;;;20.50;70.20;;;;;;5114667;28;20817;-78
2021/06/09 00:12:04;;;;;;;17.20;15.80;;;20.50;70.30;;;;;;5114835;28;20439;-78
2021/06/09 00:14:31;;;;;;;17.03;15.73;;;20.40;70.20;;;;;;5114529;28;20467;-77
2021/06/09 00:16:58;;;;;;;16.10;14.70;;;20.40;70.10;;;;;;5114187;28;20454;-79
2021/06/09 00:19:27;;;;;;;16.87;15.57;;;20.30;70.10;;;;;;5114870;28;20458;-78
2021/06/09 00:21:54;;;;;;;18.67;16.97;;;20.30;70.00;;;;;;5114681;28;20471;-77
2021/06/09 00:24:20;;;;;;;18.70;17.20;;;20.30;70.10;;;;;;5114336;28;20842;-78
2021/06/09 00:26:47;;;;;;;19.13;17.60;;;20.30;70.10;;;;;;5114887;28;20469;-78
2021/06/09 00:29:14;;;;;;;17.63;16.30;;;20.20;70.30;;;;;;5114674;28;20504;-78
2021/06/09 00:31:41;;;;;;;18.30;17.00;;;20.20;70.60;;;;;;5114755;28;20442;-79
2021/06/09 00:34:07;;;;;;;20.20;18.53;;;20.20;70.90;;;;;;5114620;28;20458;-78
2021/06/09 00:36:35;;;;;;;18.77;17.40;;;20.10;71.10;;;;;;5114456;28;20450;-77
2021/06/09 00:39:01;;;;;;;17.60;15.97;;;20.10;71.10;;;;;;5114446;28;20461;-78
2021/06/09 00:41:27;;;;;;;16.90;15.60;;;20.10;71.10;;;;;;5114541;28;20479;-77
2021/06/09 00:43:56;;;;;;;15.70;14.50;;;20.00;71.20;;;;;;5114463;28;20466;-77
2021/06/09 00:46:23;;;;;;;15.80;14.37;;;20.00;71.50;;;;;;5114518;28;20500;-78
2021/06/09 00:48:49;;;;;;;15.27;14.07;;;19.90;71.20;;;;;;5114346;28;20520;-78
2021/06/09 00:51:17;;;;;;;12.37;11.47;;;19.90;71.20;;;;;;5114265;28;20904;-78
2021/06/09 00:53:50;;;;;;;11.83;10.80;;;19.80;71.40;;;;;;5113856;28;20479;-78
2021/06/09 00:56:18;;;;;;;14.37;13.27;;;19.80;71.60;;;;;;5114105;28;20443;-77
2021/06/09 00:58:46;;;;;;;13.33;12.23;;;19.80;71.40;;;;;;5113985;28;20787;-77
2021/06/09 01:01:14;;;;;;;14.33;13.13;;;19.80;71.50;;;;;;5114269;28;20487;-78
2021/06/09 01:03:41;;;;;;;16.27;15.07;;;19.70;71.60;;;;;;5114556;28;20797;-79
2021/06/09 01:06:08;;;;;;;16.10;14.80;;;19.70;71.50;;;;;;5114433;28;20537;-78
2021/06/09 01:08:36;;;;;;;15.40;14.13;;;19.70;71.70;;;;;;5114224;28;20458;-78
2021/06/09 01:11:05;;;;;;;16.87;15.57;;;19.60;71.70;;;;;;5114266;28;20454;-78
2021/06/09 01:13:31;;;;;;;15.20;13.90;;;19.60;71.90;;;;;;5114036;28;20852;-79
2021/06/09 01:15:58;;;;;;;14.73;13.63;;;19.50;72.00;;;;;;5114266;28;20439;-78
2021/06/09 01:18:25;;;;;;;16.27;14.97;;;19.50;72.00;;;;;;5114123;28;20461;-79
2021/06/09 01:20:51;;;;;;;16.60;15.30;;;19.50;72.10;;;;;;5114283;28;20470;-78
2021/06/09 01:23:21;;;;;;;17.13;15.70;;;19.50;72.20;;;;;;5113499;28;21037;-78
2021/06/09 01:25:48;;;;;;;18.00;16.47;;;19.50;72.20;;;;;;5113988;28;20449;-79
2021/06/09 01:28:14;;;;;;;18.30;16.80;;;19.50;72.20;;;;;;5117543;28;20443;-78
2021/06/09 01:30:41;;;;;;;20.23;18.57;;;19.50;72.30;;;;;;5117570;28;21016;-78
2021/06/09 01:33:08;;;;;;;20.53;19.00;;;19.50;72.50;;;;;;5117538;28;20463;-76
2021/06/09 01:35:35;;;;;;;19.73;18.33;;;19.50;73.00;;;;;;5117674;28;20808;-77
2021/06/09 01:38:01;;;;;;;18.53;17.23;;;19.40;72.90;;;;;;5117137;28;20501;-77
2021/06/09 01:40:30;;;;;;;15.63;14.40;;;19.40;73.00;;;;;;5117203;28;20446;-77
2021/06/09 01:42:57;;;;;;;15.63;14.43;;;19.40;73.00;;;;;;5117357;28;20491;-77
2021/06/09 01:45:28;;;;;;;15.03;13.83;;;19.30;73.00;;;;;;5116819;28;20443;-77
2021/06/09 01:47:55;;;;;;;14.67;13.57;;;19.30;72.60;;;;;;5116782;28;20481;-77
2021/06/09 01:50:24;;;;;;;14.63;13.50;;;19.20;72.20;;;;;;5116569;28;20443;-77
2021/06/09 01:52:52;;;;;;;18.23;16.40;;;19.10;72.90;;;;;;5116314;28;20987;-78
2021/06/09 01:55:20;;;;;;;16.00;14.80;;;19.10;73.30;;;;;;5117084;28;20436;-77
2021/06/09 01:57:49;;;;;;;16.80;15.50;;;19.00;73.40;;;;;;5117226;28;20454;-78
2021/06/09 02:00:18;;;;;;;17.53;16.17;;;19.00;73.50;;;;;;5116878;28;20496;-78
2021/06/09 02:02:45;;;;;;;17.23;15.87;;;19.00;73.60;;;;;;5116797;28;20486;-79
2021/06/09 02:05:13;;;;;;;16.20;15.00;;;19.00;73.70;;;;;;5116711;28;20450;-78
2021/06/09 02:07:41;;;;;;;17.03;15.73;;;19.00;73.50;;;;;;5117182;28;20443;-78
2021/06/09 02:10:10;;;;;;;16.83;15.60;;;19.00;73.30;;;;;;5116700;28;20447;-78
2021/06/09 02:12:39;;;;;;;17.43;16.13;;;18.90;73.40;;;;;;5116671;28;20459;-78
2021/06/09 02:15:08;;;;;;;17.37;16.03;;;19.00;73.70;;;;;;5116962;28;20442;-78
2021/06/09 02:17:35;;;;;;;19.80;18.30;;;18.90;73.80;;;;;;5116702;28;20504;-78
2021/06/09 02:20:01;;;;;;;17.40;16.00;;;18.90;74.00;;;;;;5116651;28;20447;-78
2021/06/09 02:22:28;;;;;;;17.53;16.13;;;18.90;74.10;;;;;;5115967;28;20994;-79
2021/06/09 02:24:55;;;;;;;18.17;16.50;;;18.90;74.20;;;;;;5116179;28;20439;-78
2021/06/09 02:27:21;;;;;;;17.33;15.97;;;18.80;74.10;;;;;;5116393;28;20461;-78
2021/06/09 02:29:47;;;;;;;17.80;16.40;;;18.80;74.20;;;;;;5116487;28;20785;-78
2021/06/09 02:32:18;;;;;;;18.10;16.70;;;18.80;74.40;;;;;;5116433;28;20447;-80
2021/06/09 02:34:45;;;;;;;15.50;14.20;;;18.70;74.40;;;;;;5116078;28;20892;-79
2021/06/09 02:37:12;;;;;;;15.30;14.10;;;18.70;74.50;;;;;;5116254;28;20442;-76
2021/06/09 02:39:38;;;;;;;14.63;13.43;;;18.70;74.70;;;;;;5115554;28;20454;-77
2021/06/09 02:42:05;;;;;;;16.13;14.93;;;18.60;74.80;;;;;;5116019;28;20483;-76
2021/06/09 02:44:31;;;;;;;16.90;15.50;;;18.60;74.70;;;;;;5115952;28;20826;-79
2021/06/09 02:47:00;;;;;;;15.87;14.67;;;18.60;74.90;;;;;;5116513;28;20449;-76
2021/06/09 02:49:30;;;;;;;17.63;16.27;;;18.60;75.00;;;;;;5115782;28;20947;-78
2021/06/09 02:52:02;;;;;;;16.93;15.63;;;18.50;74.80;;;;;;5115844;28;20439;-77
2021/06/09 02:54:33;;;;;;;19.20;17.40;;;18.50;75.00;;;;;;5115714;28;20474;-77
2021/06/09 02:57:05;;;;;;;18.10;16.70;;;18.50;75.10;;;;;;5115697;28;20429;-76
2021/06/09 02:59:56;;;;;;;19.40;17.60;;;18.40;75.00;;;;;;5115805;28;20509;-78
2021/06/09 03:02:32;;;;;;;17.27;16.00;;;18.40;75.00;;;;;;5111246;28;20483;-78
2021/06/09 03:05:05;;;;;;;17.47;16.07;;;18.40;75.00;;;;;;5115732;28;20472;-78
2021/06/09 03:07:37;;;;;;;17.10;15.60;;;18.40;75.20;;;;;;5115545;28;20431;-77
2021/06/09 03:10:09;;;;;;;18.57;17.07;;;18.30;75.00;;;;;;5115293;28;20427;-77
2021/06/09 03:12:44;;;;;;;17.27;15.87;;;18.40;75.40;;;;;;5115323;28;20521;-79
2021/06/09 03:15:13;;;;;;;18.70;16.80;;;18.40;75.60;;;;;;5115030;28;20892;-77
2021/06/09 03:17:50;;;;;;;21.23;19.40;;;18.30;75.50;;;;;;5115499;28;20450;-76
2021/06/09 03:20:22;;;;;;;20.10;18.40;;;18.30;75.90;;;;;;5115211;28;20776;-79
2021/06/09 03:22:58;;;;;;;21.80;20.10;;;18.30;76.30;;;;;;5115185;28;20479;-78
2021/06/09 03:25:33;;;;;;;21.00;19.30;;;18.30;76.30;;;;;;5115415;28;20423;-79
2021/06/09 03:28:11;;;;;;;21.20;19.50;;;18.30;76.70;;;;;;5116159;28;20469;-78
2021/06/09 03:30:39;;;;;;;22.43;20.70;;;18.30;76.80;;;;;;5115049;28;20910;-78
2021/06/09 03:33:08;;;;;;;20.90;19.00;;;18.30;76.90;;;;;;5115243;28;20467;-78
2021/06/09 03:35:41;;;;;;;21.20;19.50;;;18.20;76.80;;;;;;5115213;28;20468;-78
2021/06/09 03:38:12;;;;;;;21.63;19.73;;;18.30;77.00;;;;;;5115206;28;20423;-78
2021/06/09 03:40:42;;;;;;;22.07;20.17;;;18.30;77.00;;;;;;5115043;28;20432;-78
2021/06/09 03:43:12;;;;;;;21.93;20.13;;;18.30;77.20;;;;;;5114882;28;20540;-78
2021/06/09 03:45:42;;;;;;;21.13;19.33;;;18.30;77.30;;;;;;5115167;28;20426;-78
2021/06/09 03:48:10;;;;;;;22.03;20.13;;;18.30;77.30;;;;;;5114942;28;20512;-78
2021/06/09 03:50:39;;;;;;;21.37;19.40;;;18.20;77.20;;;;;;5113671;28;20940;-78
2021/06/09 03:53:07;;;;;;;21.37;19.33;;;18.20;77.10;;;;;;5114853;28;20463;-79
2021/06/09 03:55:36;;;;;;;19.47;17.87;;;18.20;76.90;;;;;;5115537;28;20439;-79
2021/06/09 03:58:03;;;;;;;18.23;16.80;;;18.10;76.60;;;;;;5115905;28;20500;-80
2021/06/09 04:00:31;;;;;;;17.47;15.93;;;18.10;76.40;;;;;;5115504;28;20447;-79
2021/06/09 04:02:58;;;;;;;18.33;16.60;;;18.00;76.40;;;;;;5115248;28;20486;-79
2021/06/09 04:05:26;;;;;;;17.87;16.17;;;18.00;76.40;;;;;;5115704;28;20812;-79
2021/06/09 04:07:57;;;;;;;18.53;16.83;;;18.00;76.60;;;;;;5115124;28;20447;-78
2021/06/09 04:10:24;;;;;;;18.60;16.90;;;18.00;77.00;;;;;;5115313;28;20476;-79
2021/06/09 04:12:50;;;;;;;17.37;16.03;;;18.00;77.20;;;;;;5114529;28;20463;-78
2021/06/09 04:15:18;;;;;;;19.63;18.03;;;18.00;77.30;;;;;;5114596;28;20499;-78
2021/06/09 04:17:47;;;;;;;19.57;17.73;;;18.10;77.20;;;;;;5114513;28;20443;-78
2021/06/09 04:20:18;;;;;;;18.17;16.77;;;18.00;77.30;;;;;;5114517;28;20445;-78
2021/06/09 04:22:44;;;;;;;18.47;16.83;;;18.10;77.70;;;;;;5114229;28;20482;-78
2021/06/09 04:25:13;;;;;;;19.93;18.33;;;18.10;77.50;;;;;;5114647;28;20496;-78
2021/06/09 04:27:43;;;;;;;19.27;17.67;;;18.10;77.70;;;;;;5114603;28;20446;-78
2021/06/09 04:30:11;;;;;;;19.40;17.90;;;18.10;78.00;;;;;;5114711;28;20431;-78
2021/06/09 04:32:48;;;;;;;19.63;18.03;;;18.10;78.30;;;;;;5114103;28;20463;-78
2021/06/09 04:35:15;;;;;;;21.30;19.60;;;18.10;78.40;;;;;;5114571;28;20427;-79
2021/06/09 04:37:41;;;;;;;20.33;18.40;;;18.20;78.80;;;;;;5114528;28;20454;-78
2021/06/09 04:40:16;;;;;;;21.13;19.37;;;18.20;78.70;;;;;;5114256;28;20449;-78
2021/06/09 04:42:43;;;;;;;20.93;19.23;;;18.30;79.00;;;;;;5114467;28;20477;-78
2021/06/09 04:45:11;;;;;;;20.03;18.13;;;18.30;79.30;;;;;;5114316;28;20498;-78
2021/06/09 04:47:37;;;;;;;22.87;20.97;;;18.30;80.10;;;;;;5114502;28;20447;-79
2021/06/09 04:50:04;;;;;;;22.97;21.07;;;18.30;79.40;;;;;;5114328;28;20446;-78
2021/06/09 04:52:30;;;;;;;24.80;21.30;;;18.30;79.70;;;;;;5114041;28;20450;-78
2021/06/09 04:54:57;;;;;;;24.57;22.40;;;18.40;80.60;;;;;;5114270;28;20431;-78
2021/06/09 04:57:24;;;;;;;25.70;23.47;;;18.40;80.90;;;;;;5114423;28;20454;-79
2021/06/09 04:59:51;;;;;;;26.63;24.17;;;18.50;81.50;;;;;;5113934;28;20443;-79
2021/06/09 05:02:18;;;;;;;25.13;22.77;;;18.50;81.60;;;;;;5116506;28;20474;-79
2021/06/09 05:04:45;;;;;;;27.67;24.63;;;18.50;82.40;;;;;;5118939;28;20466;-79
2021/06/09 05:07:11;;;;;;;28.03;25.10;;;18.60;81.80;;;;;;5118644;28;20442;-79
2021/06/09 05:09:37;;;;;;;28.87;25.57;;;18.70;81.90;;;;;;5118885;28;20432;-80
2021/06/09 05:12:07;;;;;;;37.80;29.87;;;18.70;82.20;;;;;;5118264;28;20443;-79
2021/06/09 05:14:36;;;;;;;59.40;42.47;;;18.80;82.50;;;;;;5118233;28;20887;-79
2021/06/09 05:17:05;;;;;;;46.10;41.37;;;18.80;82.50;;;;;;5118143;28;20451;-79
2021/06/09 05:19:33;;;;;;;52.57;44.47;;;18.90;82.70;;;;;;5117910;28;20450;-79
2021/06/09 05:22:05;;;;;;;54.47;43.80;;;19.00;82.80;;;;;;5117785;28;20982;-79
2021/06/09 05:24:33;;;;;;;52.03;44.80;;;19.00;82.90;;;;;;5118265;28;20458;-78
2021/06/09 05:27:00;;;;;;;49.27;43.67;;;19.10;82.90;;;;;;5118077;28;20442;-78
2021/06/09 05:29:28;;;;;;;61.03;47.57;;;19.20;83.20;;;;;;5118211;28;20446;-78
2021/06/09 05:31:56;;;;;;;61.20;49.50;;;19.20;83.40;;;;;;5117999;28;20500;-78
2021/06/09 05:34:23;;;;;;;55.37;49.70;;;19.30;83.60;;;;;;5117861;28;20467;-78
2021/06/09 05:36:50;;;;;;;58.47;49.60;;;19.30;84.20;;;;;;5118319;28;20446;-77
2021/06/09 05:39:19;;;;;;;57.90;50.40;;;19.30;84.50;;;;;;5117724;28;20443;-78
2021/06/09 05:41:46;;;;;;;62.03;52.50;;;19.40;84.00;;;;;;5117325;28;20470;-78
2021/06/09 05:44:14;;;;;;;57.73;51.23;;;19.40;84.50;;;;;;5117517;28;20463;-78
2021/06/09 05:46:43;;;;;;;65.50;51.43;;;19.40;84.40;;;;;;5117294;28;20446;-77
2021/06/09 05:49:19;;;;;;;58.07;50.30;;;19.50;84.40;;;;;;5117593;28;20450;-78
2021/06/09 05:51:45;;;;;;;59.17;52.77;;;19.60;84.60;;;;;;5117566;28;20426;-77
2021/06/09 05:54:12;;;;;;;60.70;54.00;;;19.70;84.50;;;;;;5117436;28;20478;-78
2021/06/09 05:56:40;;;;;;;55.40;49.20;;;19.80;84.40;;;;;;5117901;28;20438;-78
2021/06/09 05:59:06;;;;;;;56.20;50.40;;;19.80;84.30;;;;;;5116900;28;20806;-78
2021/06/09 06:01:32;;;;;;;53.77;48.20;;;19.90;84.00;;;;;;5117399;28;20435;-78
2021/06/09 06:03:59;;;;;;;44.93;40.50;;;20.10;83.60;;;;;;5117497;28;20470;-78
2021/06/09 06:06:26;;;;;;;47.20;40.40;;;20.20;83.20;;;;;;5117678;28;20447;-78
2021/06/09 06:08:53;;;;;;;56.83;51.00;;;20.30;83.00;;;;;;5118624;28;20450;-77
2021/06/09 06:11:47;;;;;;;41.57;37.43;;;20.40;82.80;;;;;;5116979;28;20427;-77
2021/06/09 06:14:19;;;;;;;55.23;49.13;;;20.50;82.60;;;;;;5115606;28;20869;-77
2021/06/09 06:16:52;;;;;;;49.43;40.03;;;20.70;80.90;;;;;;5116558;28;20796;-77
2021/06/09 06:19:19;;;;;;;45.23;40.87;;;20.80;80.60;;;;;;5116562;28;20427;-77
2021/06/09 06:21:48;;;;;;;51.73;46.27;;;20.90;79.00;;;;;;5116755;28;20536;-75
2021/06/09 06:24:16;;;;;;;54.10;44.70;;;21.10;78.50;;;;;;5116820;28;20515;-78
2021/06/09 06:26:44;;;;;;;54.47;41.13;;;21.20;78.00;;;;;;5116150;28;20446;-76
2021/06/09 06:29:11;;;;;;;49.97;41.40;;;21.30;77.30;;;;;;5116413;28;20450;-75
2021/06/09 06:31:38;;;;;;;52.30;43.83;;;21.50;76.60;;;;;;5116063;28;20442;-75
2021/06/09 06:34:05;;;;;;;49.47;39.17;;;21.60;76.20;;;;;;5116292;28;20520;-77
2021/06/09 06:36:32;;;;;;;40.43;36.20;;;21.70;76.00;;;;;;5115898;28;20442;-75
2021/06/09 06:39:00;;;;;;;47.83;40.03;;;21.90;75.20;;;;;;5116108;28;20465;-76
2021/06/09 06:41:27;;;;;;;50.83;44.97;;;22.00;74.70;;;;;;5115604;28;20439;-76
2021/06/09 06:43:56;;;;;;;50.23;39.20;;;22.10;75.00;;;;;;5115228;28;21044;-76
2021/06/09 06:46:23;;;;;;;41.97;34.00;;;22.30;75.30;;;;;;5116459;28;20424;-77
2021/06/09 06:48:53;;;;;;;51.43;45.93;;;22.40;73.90;;;;;;5116347;28;20451;-76
2021/06/09 06:51:19;;;;;;;60.10;45.37;;;22.60;73.90;;;;;;5116162;28;20451;-77
2021/06/09 06:53:48;;;;;;;42.87;38.50;;;22.70;73.40;;;;;;5115457;28;20486;-78
2021/06/09 06:56:17;;;;;;;43.33;33.47;;;22.90;72.90;;;;;;5116334;28;20940;-78
2021/06/09 06:58:49;;;;;;;48.70;43.60;;;23.00;71.90;;;;;;5115832;28;20436;-78
2021/06/09 07:01:16;;;;;;;46.70;42.37;;;23.20;72.10;;;;;;5116339;28;20496;-80
2021/06/09 07:03:43;;;;;;;46.40;41.37;;;23.20;71.70;;;;;;5116305;28;20482;-78
2021/06/09 07:06:10;;;;;;;44.83;38.47;;;23.20;71.40;;;;;;5115954;28;20449;-77
2021/06/09 07:08:37;;;;;;;40.77;36.40;;;23.30;69.70;;;;;;5116194;28;20439;-78
2021/06/09 07:11:04;;;;;;;42.97;33.57;;;23.30;69.70;;;;;;5116591;28;20503;-78
2021/06/09 07:13:32;;;;;;;53.17;41.53;;;23.50;69.70;;;;;;5116531;28;20466;-80
2021/06/09 07:16:01;;;;;;;41.03;33.37;;;23.60;69.60;;;;;;5115751;28;20443;-80
2021/06/09 07:18:29;;;;;;;43.50;34.87;;;23.80;68.90;;;;;;5116374;28;20458;-79
2021/06/09 07:20:56;;;;;;;40.70;32.33;;;23.90;69.10;;;;;;5115852;28;20482;-79
2021/06/09 07:23:23;;;;;;;44.93;37.47;;;24.10;67.70;;;;;;5116306;28;20482;-80
2021/06/09 07:25:50;;;;;;;42.50;33.50;;;24.30;66.40;;;;;;5117922;28;20446;-80
2021/06/09 07:28:18;;;;;;;39.93;32.63;;;24.40;63.90;;;;;;5117481;28;20939;-80
2021/06/09 07:30:47;;;;;;;38.77;32.50;;;24.60;64.60;;;;;;5117717;28;20443;-79
2021/06/09 07:33:14;;;;;;;38.40;32.73;;;24.70;63.20;;;;;;5117008;28;20455;-80
2021/06/09 07:35:41;;;;;;;38.17;33.17;;;24.70;61.50;;;;;;5117398;28;20427;-81
2021/06/09 07:38:13;;;;;;;32.53;29.43;;;24.80;63.00;;;;;;5116857;28;20455;-79
2021/06/09 07:40:42;;;;;;;31.80;28.80;;;24.90;60.00;;;;;;5117009;28;20432;-80
2021/06/09 07:43:12;;;;;;;36.47;33.00;;;25.00;61.10;;;;;;5116745;28;20493;-79
2021/06/09 07:45:41;;;;;;;33.23;30.17;;;25.20;60.20;;;;;;5116509;28;20443;-79
2021/06/09 07:48:11;;;;;;;32.17;29.27;;;25.20;58.70;;;;;;5116634;28;20446;-80
2021/06/09 07:50:42;;;;;;;28.97;26.30;;;25.30;58.70;;;;;;5116741;28;20932;-79
2021/06/09 07:53:10;;;;;;;31.30;28.37;;;25.40;58.10;;;;;;5116193;28;20483;-80
2021/06/09 07:55:38;;;;;;;29.60;26.90;;;25.50;58.40;;;;;;5116316;28;20447;-80
2021/06/09 07:58:05;;;;;;;23.07;20.87;;;25.60;58.20;;;;;;5116081;28;20443;-80
2021/06/09 08:00:32;;;;;;;30.13;27.27;;;25.90;57.60;;;;;;5115802;28;20832;-80
2021/06/09 08:02:59;;;;;;;26.27;24.07;;;26.10;57.10;;;;;;5116051;28;20487;-80
2021/06/09 08:05:27;;;;;;;21.47;19.30;;;26.30;57.50;;;;;;5116735;28;20496;-80
2021/06/09 08:07:54;;;;;;;24.50;22.30;;;26.50;56.20;;;;;;5116857;28;20971;-80
2021/06/09 08:10:22;;;;;;;21.30;19.43;;;26.70;55.50;;;;;;5116030;28;20454;-78
2021/06/09 08:12:51;;;;;;;19.17;17.57;;;26.90;53.90;;;;;;5116049;28;20538;-78
2021/06/09 08:15:18;;;;;;;24.50;22.50;;;27.10;54.60;;;;;;5116316;28;20470;-80
2021/06/09 08:17:45;;;;;;;24.20;22.00;;;27.30;54.80;;;;;;5115942;28;20443;-78
2021/06/09 08:20:14;;;;;;;23.67;21.70;;;27.40;53.50;;;;;;5116599;28;20451;-80
2021/06/09 08:22:44;;;;;;;22.47;20.47;;;27.50;52.90;;;;;;5115992;28;20483;-80
2021/06/09 08:25:13;;;;;;;18.33;16.70;;;27.50;53.40;;;;;;5116352;28;20484;-80
2021/06/09 08:27:39;;;;;;;22.30;20.30;;;27.60;53.50;;;;;;5116705;28;20819;-79
2021/06/09 08:30:07;;;;;;;24.50;22.47;;;27.80;53.30;;;;;;5116039;28;20431;-80
2021/06/09 08:32:34;;;;;;;24.47;22.47;;;27.90;53.30;;;;;;5115978;28;20467;-80
2021/06/09 08:35:00;;;;;;;20.80;18.60;;;27.90;52.30;;;;;;5117404;28;20445;-81
2021/06/09 08:37:27;;;;;;;28.97;26.37;;;27.90;53.00;;;;;;5119600;28;20427;-81
2021/06/09 08:39:55;;;;;;;26.93;24.40;;;27.80;52.60;;;;;;5122129;28;20451;-80
2021/06/09 08:42:25;;;;;;;25.43;23.03;;;27.80;51.80;;;;;;5122174;28;20466;-81
2021/06/09 08:44:51;;;;;;;16.50;15.10;;;27.90;51.30;;;;;;5121812;28;20438;-81
2021/06/09 08:47:18;;;;;;;26.17;23.70;;;28.10;51.50;;;;;;5121854;28;20427;-81
2021/06/09 08:49:45;;;;;;;28.80;25.97;;;28.40;51.60;;;;;;5121688;28;20797;-81
2021/06/09 08:52:13;;;;;;;18.73;17.07;;;28.60;51.20;;;;;;5121421;28;20485;-80
2021/06/09 08:54:43;;;;;;;21.47;19.40;;;28.80;49.30;;;;;;5121538;28;20419;-81
2021/06/09 08:57:13;;;;;;;18.67;16.97;;;29.10;49.30;;;;;;5120750;28;20785;-81
2021/06/09 08:59:40;;;;;;;18.40;16.70;;;29.50;48.30;;;;;;5120356;28;20455;-80
2021/06/09 09:02:08;;;;;;;16.57;14.90;;;29.90;48.50;;;;;;5120097;28;20979;-80
2021/06/09 09:04:34;;;;;;;15.67;14.27;;;30.30;48.10;;;;;;5121257;28;20821;-81
2021/06/09 09:07:01;;;;;;;17.90;16.30;;;30.60;47.10;;;;;;5120470;28;20792;-80
2021/06/09 09:09:27;;;;;;;17.83;16.23;;;31.10;46.80;;;;;;5120398;28;20431;-81
2021/06/09 09:11:54;;;;;;;28.73;26.30;;;31.50;46.30;;;;;;5120211;28;20427;-81
2021/06/09 09:14:21;;;;;;;29.67;26.77;;;31.50;44.60;;;;;;5120380;28;20520;-80
2021/06/09 09:17:05;;;;;;;24.40;22.30;;;31.40;43.60;;;;;;5120332;28;20427;-81
2021/06/09 09:19:33;;;;;;;25.80;23.10;;;31.40;43.80;;;;;;5120084;28;20439;-81
2021/06/09 09:22:00;;;;;;;19.67;17.77;;;31.40;43.30;;;;;;5120080;28;20549;-81
2021/06/09 09:24:39;;;;;;;19.40;17.70;;;31.50;43.40;;;;;;5120496;28;20458;-81
2021/06/09 09:27:06;;;;;;;24.07;21.90;;;31.70;42.40;;;;;;5119701;28;20434;-80
2021/06/09 09:29:34;;;;;;;24.03;22.03;;;31.90;42.30;;;;;;5120233;28;20480;-80
2021/06/09 09:32:05;;;;;;;29.43;26.73;;;31.90;41.20;;;;;;5119770;28;20499;-80
2021/06/09 09:34:34;;;;;;;26.97;24.50;;;31.60;40.10;;;;;;5119218;28;20474;-80
2021/06/09 09:37:06;;;;;;;24.90;22.97;;;31.40;41.50;;;;;;5119128;28;20427;-80
2021/06/09 09:39:35;;;;;;;23.50;21.80;;;31.30;41.90;;;;;;5119056;28;20426;-80
2021/06/09 09:42:24;;;;;;;25.57;23.50;;;31.30;41.90;;;;;;5119104;28;20447;-80
2021/06/09 09:44:52;;;;;;;24.03;21.93;;;31.30;40.40;;;;;;5119106;28;20458;-81
2021/06/09 09:47:23;;;;;;;20.03;18.33;;;31.10;42.20;;;;;;5118290;28;20434;-80
2021/06/09 09:49:49;;;;;;;24.40;22.43;;;31.10;42.40;;;;;;5117510;28;20434;-81
2021/06/09 09:52:16;;;;;;;27.10;24.73;;;31.20;44.20;;;;;;5117939;28;20443;-80
2021/06/09 09:54:44;;;;;;;25.23;23.33;;;31.40;42.20;;;;;;5118536;28;20427;-80
2021/06/09 09:57:13;;;;;;;23.17;21.10;;;31.60;41.10;;;;;;5118550;28;20451;-80
2021/06/09 09:59:53;;;;;;;23.53;21.43;;;31.90;41.90;;;;;;5118831;28;20431;-80
2021/06/09 10:02:20;;;;;;;23.63;21.90;;;32.20;39.90;;;;;;5118673;28;20507;-81
2021/06/09 10:04:50;;;;;;;24.20;22.27;;;32.40;40.10;;;;;;5120237;28;20446;-81
2021/06/09 10:07:17;;;;;;;18.00;16.60;;;32.50;39.80;;;;;;5120365;28;20904;-80
2021/06/09 10:09:44;;;;;;;21.97;20.23;;;32.70;39.10;;;;;;5120612;28;20446;-81
2021/06/09 10:12:12;;;;;;;19.10;17.70;;;33.10;38.90;;;;;;5120576;28;20422;-82
2021/06/09 10:14:41;;;;;;;21.60;19.90;;;33.50;39.00;;;;;;5120147;28;20470;-81
2021/06/09 10:17:10;;;;;;;22.00;20.40;;;34.00;38.10;;;;;;5119101;28;20862;-81
2021/06/09 10:19:39;;;;;;;18.50;17.20;;;34.20;34.70;;;;;;5119814;28;20435;-82
2021/06/09 10:22:08;;;;;;;13.93;12.93;;;34.40;36.00;;;;;;5119962;28;20445;-81
2021/06/09 10:24:46;;;;;;;19.00;17.53;;;34.90;36.00;;;;;;5119565;28;20512;-81
2021/06/09 10:27:13;;;;;;;21.90;20.10;;;35.60;35.00;;;;;;5119489;28;20422;-81
2021/06/09 10:29:39;;;;;;;18.17;16.77;;;35.80;32.10;;;;;;5119242;28;20457;-81
2021/06/09 10:32:07;;;;;;;17.10;15.90;;;35.80;32.60;;;;;;5119746;28;20461;-80
2021/06/09 10:34:36;;;;;;;12.60;11.70;;;35.90;33.00;;;;;;5119701;28;20553;-81
2021/06/09 10:37:06;;;;;;;12.70;11.60;;;35.90;33.20;;;;;;5120273;28;20430;-81
2021/06/09 10:39:34;;;;;;;14.30;13.07;;;35.60;31.80;;;;;;5120250;28;20407;-81
2021/06/09 10:42:03;;;;;;;13.33;12.43;;;35.70;32.30;;;;;;5120046;28;20519;-83
2021/06/09 10:44:33;;;;;;;11.77;10.87;;;35.90;31.70;;;;;;5119875;28;20470;-80
2021/06/09 10:47:01;;;;;;;14.27;13.27;;;36.30;32.30;;;;;;5119461;28;20460;-82
2021/06/09 10:49:33;;;;;;;16.43;15.10;;;36.90;31.20;;;;;;5118963;28;20454;-81
2021/06/09 10:52:01;;;;;;;12.80;11.90;;;37.20;29.20;;;;;;5118561;28;20449;-81
2021/06/09 10:54:28;;;;;;;15.70;14.47;;;37.60;28.80;;;;;;5119199;28;20476;-82
2021/06/09 10:56:56;;;;;;;13.83;12.93;;;38.10;28.20;;;;;;5118782;28;20426;-82
2021/06/09 10:59:24;;;;;;;14.20;13.27;;;38.50;28.00;;;;;;5118244;28;20207;-80
2021/06/09 11:01:55;;;;;;;16.90;15.70;;;38.90;27.70;;;;;;5118590;28;20548;-79
2021/06/09 11:04:22;;;;;;;11.90;11.00;;;39.20;26.20;;;;;;5118809;28;20213;-82
2021/06/09 11:06:51;;;;;;;11.55;10.63;;;39.50;26.50;;;;;;5118984;28;20193;-81
2021/06/09 11:09:20;;;;;;;11.10;10.02;;;39.90;26.30;;;;;;5118874;28;20233;-80
2021/06/09 11:12:04;;;;;;;10.30;9.40;;;40.40;26.40;;;;;;5119011;28;20196;-79
2021/06/09 11:14:30;;;;;;;10.30;9.63;;;41.00;26.50;;;;;;5117308;28;20221;-80
2021/06/09 11:16:56;;;;;;;12.18;11.38;;;41.50;24.20;;;;;;5117888;28;20184;-79
2021/06/09 11:19:35;;;;;;;13.98;13.07;;;42.00;24.20;;;;;;5117316;28;20615;-78
2021/06/09 11:22:20;;;;;;;13.35;12.45;;;42.30;22.90;;;;;;5116898;28;20682;-80
2021/06/09 11:25:11;;;;;;;15.75;14.73;;;42.10;22.60;;;;;;5116901;28;20197;-80
2021/06/09 11:27:51;;;;;;;11.68;10.80;;;42.10;22.80;;;;;;5117844;28;20189;-79
2021/06/09 11:30:37;;;;;;;12.35;11.43;;;41.80;23.40;;;;;;5117916;28;20358;-79
2021/06/09 11:33:05;;;;;;;14.40;13.30;;;41.80;24.10;;;;;;5120910;28;20216;-80
2021/06/09 11:35:43;;;;;;;15.55;14.45;;;41.70;22.80;;;;;;5122074;28;20185;-81
2021/06/09 11:38:23;;;;;;;14.43;13.52;;;41.70;23.30;;;;;;5121286;28;20203;-81
2021/06/09 11:40:52;;;;;;;14.70;13.60;;;41.40;24.00;;;;;;5120471;28;20188;-83
2021/06/09 11:43:22;;;;;;;14.43;13.35;;;41.30;23.10;;;;;;5119003;28;20310;-83
2021/06/09 11:45:54;;;;;;;16.27;14.98;;;41.20;23.80;;;;;;5119338;28;20197;-80
2021/06/09 11:48:24;;;;;;;13.63;12.63;;;41.30;23.50;;;;;;5119890;28;20213;-79
2021/06/09 11:50:52;;;;;;;13.55;12.38;;;41.50;23.10;;;;;;5118488;28;20208;-81
2021/06/09 11:53:36;;;;;;;11.32;10.52;;;41.70;22.80;;;;;;5117710;28;20225;-80
2021/06/09 11:56:14;;;;;;;13.68;12.60;;;42.00;23.20;;;;;;5118675;28;20193;-81
2021/06/09 11:58:43;;;;;;;11.68;10.77;;;42.50;22.90;;;;;;5117639;28;20204;-79
2021/06/09 12:01:11;;;;;;;9.85;9.25;;;43.10;21.90;;;;;;5119588;28;20181;-80
2021/06/09 12:03:39;;;;;;;11.00;10.27;;;43.70;22.20;;;;;;5119554;28;20225;-79
2021/06/09 12:06:14;;;;;;;11.50;10.60;;;44.10;21.40;;;;;;5119459;28;20633;-81
2021/06/09 12:08:40;;;;;;;11.02;10.27;;;44.10;21.20;;;;;;5118435;28;20238;-81
2021/06/09 12:11:07;;;;;;;12.43;11.52;;;43.90;21.20;;;;;;5118262;28;20196;-82
2021/06/09 12:13:33;;;;;;;10.75;10.05;;;43.90;20.60;;;;;;5118684;28;20566;-80
2021/06/09 12:16:13;;;;;;;9.75;9.15;;;44.10;21.00;;;;;;5117734;28;20192;-80
2021/06/09 12:18:39;;;;;;;12.88;11.90;;;44.40;20.70;;;;;;5116168;28;20191;-81
2021/06/09 12:21:09;;;;;;;11.88;11.07;;;44.50;19.50;;;;;;5116483;28;20208;-81
2021/06/09 12:23:36;;;;;;;10.85;10.07;;;44.50;19.20;;;;;;5115345;28;20231;-81
2021/06/09 12:26:04;;;;;;;9.70;9.10;;;44.40;20.10;;;;;;5116173;28;20196;-81
2021/06/09 12:28:30;;;;;;;11.07;10.25;;;44.40;20.40;;;;;;5116333;28;20188;-80
2021/06/09 12:30:58;;;;;;;11.55;10.75;;;44.70;20.50;;;;;;5116077;28;20570;-80
2021/06/09 12:33:37;;;;;;;10.68;9.98;;;44.80;19.30;;;;;;5115733;28;20231;-81
2021/06/09 12:36:08;;;;;;;12.55;11.65;;;45.00;19.40;;;;;;5115776;28;20204;-81
2021/06/09 12:38:34;;;;;;;11.90;11.15;;;44.70;18.40;;;;;;5115526;28;20234;-81